Time;durP1;ratioP1;P1;durP2;ratioP2;P2;SDS_P1;SDS_P2;PMS_P1;PMS_P2;Temp;Humidity;BMP_temperature;BMP_pressure;BME280_temperature;BME280_humidity;BME280_pressure;Samples;Min_cycle;Max_cycle;Signal;HPM_P1;HPM_P2
2024/01/11 00:01:24;;;;;;;51.58;28.23;;;;;;;;;;5013582;28;20951;-80
2024/01/11 00:03:50;;;;;;;46.78;26.35;;;;;;;;;;4997077;28;20411;-80
2024/01/11 00:06:16;;;;;;;50.13;28.10;;;;;;;;;;5021633;28;20405;-80
2024/01/11 00:08:42;;;;;;;50.45;27.67;;;;;;;;;;4999593;28;20406;-80
2024/01/11 00:11:08;;;;;;;48.60;27.38;;;;;;;;;;5031468;28;20441;-80
2024/01/11 00:13:35;;;;;;;47.88;26.52;;;;;;;;;;5035813;28;20412;-79
2024/01/11 00:16:01;;;;;;;47.00;27.10;;;;;;;;;;5002909;28;20917;-79
2024/01/11 00:18:27;;;;;;;51.38;27.55;;;;;;;;;;4991877;28;20752;-80
2024/01/11 00:20:53;;;;;;;51.08;27.25;;;;;;;;;;5035860;28;20478;-80
2024/01/11 00:23:19;;;;;;;49.67;26.75;;;;;;;;;;5011973;28;20408;-80
2024/01/11 00:25:45;;;;;;;48.13;26.50;;;;;;;;;;5023940;28;20417;-80
2024/01/11 00:28:14;;;;;;;46.92;25.70;;;;;;;;;;5028253;28;20425;-80
2024/01/11 00:30:40;;;;;;;47.70;25.42;;;;;;;;;;5015312;28;20406;-80
2024/01/11 00:33:06;;;;;;;50.35;26.92;;;;;;;;;;5016752;28;20415;-80
2024/01/11 00:35:32;;;;;;;48.28;26.90;;;;;;;;;;5033143;28;20407;-80
2024/01/11 00:37:58;;;;;;;51.70;28.35;;;;;;;;;;5015772;28;20933;-80
2024/01/11 00:40:25;;;;;;;51.20;27.23;;;;;;;;;;5012372;28;20428;-80
2024/01/11 00:42:51;;;;;;;53.35;28.95;;;;;;;;;;5012961;28;20403;-80
2024/01/11 00:45:18;;;;;;;53.38;27.25;;;;;;;;;;5029012;28;20923;-80
2024/01/11 00:47:44;;;;;;;50.35;27.70;;;;;;;;;;5007114;28;20813;-80
2024/01/11 00:50:10;;;;;;;50.72;27.42;;;;;;;;;;5013672;28;20412;-80
2024/01/11 00:52:36;;;;;;;53.35;28.42;;;;;;;;;;5024732;28;20407;-80
2024/01/11 00:55:02;;;;;;;52.08;28.10;;;;;;;;;;5016418;28;20403;-80
2024/01/11 00:57:28;;;;;;;53.88;28.27;;;;;;;;;;5019758;28;20420;-80
2024/01/11 00:59:55;;;;;;;54.83;29.00;;;;;;;;;;4993519;28;20427;-80
2024/01/11 01:02:21;;;;;;;55.13;28.98;;;;;;;;;;5029904;28;20923;-80
2024/01/11 01:04:49;;;;;;;56.10;29.13;;;;;;;;;;5031959;28;20399;-80
2024/01/11 01:07:15;;;;;;;51.15;28.08;;;;;;;;;;5027776;28;20415;-81
2024/01/11 01:09:43;;;;;;;53.28;28.35;;;;;;;;;;5015693;28;20403;-80
2024/01/11 01:12:09;;;;;;;53.10;28.10;;;;;;;;;;5014852;28;20403;-79
2024/01/11 01:14:36;;;;;;;52.42;27.73;;;;;;;;;;5015814;28;20418;-80
2024/01/11 01:17:02;;;;;;;57.97;29.27;;;;;;;;;;5010762;28;20409;-79
2024/01/11 01:19:28;;;;;;;55.42;29.02;;;;;;;;;;5023755;28;20431;-79
2024/01/11 01:21:54;;;;;;;57.05;30.13;;;;;;;;;;5015692;28;20919;-79
2024/01/11 01:24:20;;;;;;;57.05;29.40;;;;;;;;;;5010376;28;20927;-80
2024/01/11 01:26:49;;;;;;;59.20;29.92;;;;;;;;;;5015583;28;20407;-80
2024/01/11 01:29:22;;;;;;;58.45;30.75;;;;;;;;;;5018594;28;20488;-80
2024/01/11 01:31:48;;;;;;;61.57;30.60;;;;;;;;;;4999776;28;20767;-80
2024/01/11 01:34:14;;;;;;;59.55;30.83;;;;;;;;;;5012469;28;20432;-80
2024/01/11 01:36:41;;;;;;;58.47;30.80;;;;;;;;;;5028605;28;20427;-80
2024/01/11 01:39:07;;;;;;;65.00;31.13;;;;;;;;;;5012884;28;20916;-80
2024/01/11 01:41:33;;;;;;;59.90;30.80;;;;;;;;;;5014828;28;20762;-80
2024/01/11 01:43:59;;;;;;;62.17;31.38;;;;;;;;;;5028512;28;20404;-81
2024/01/11 01:46:26;;;;;;;59.45;30.38;;;;;;;;;;5026841;28;20957;-80
2024/01/11 01:48:54;;;;;;;59.78;31.23;;;;;;;;;;5033028;28;20468;-80
2024/01/11 01:51:20;;;;;;;62.05;31.70;;;;;;;;;;5024534;28;20516;-79
2024/01/11 01:53:46;;;;;;;63.42;31.70;;;;;;;;;;5031896;28;20394;-80
2024/01/11 01:56:13;;;;;;;62.13;31.77;;;;;;;;;;4996876;28;20403;-80
2024/01/11 01:58:39;;;;;;;64.03;32.00;;;;;;;;;;5014947;28;20431;-80
2024/01/11 02:01:05;;;;;;;63.78;32.05;;;;;;;;;;5014867;28;20510;-80
2024/01/11 02:03:32;;;;;;;65.78;33.15;;;;;;;;;;5015802;28;20405;-80
2024/01/11 02:05:58;;;;;;;63.53;31.83;;;;;;;;;;5006973;28;20431;-80
2024/01/11 02:08:26;;;;;;;66.50;32.75;;;;;;;;;;5015128;28;20463;-80
2024/01/11 02:10:52;;;;;;;62.85;30.83;;;;;;;;;;5027677;28;20722;-80
2024/01/11 02:13:19;;;;;;;69.17;33.90;;;;;;;;;;5007165;28;20409;-80
2024/01/11 02:15:45;;;;;;;64.68;32.30;;;;;;;;;;5015341;28;20430;-80
2024/01/11 02:18:11;;;;;;;65.20;32.13;;;;;;;;;;5015261;28;20537;-80
2024/01/11 02:20:38;;;;;;;69.50;33.53;;;;;;;;;;5017256;28;20868;-81
2024/01/11 02:23:06;;;;;;;68.13;33.92;;;;;;;;;;5016720;28;20438;-81
2024/01/11 02:25:32;;;;;;;68.47;33.47;;;;;;;;;;5017176;28;20434;-81
2024/01/11 02:27:58;;;;;;;70.32;33.75;;;;;;;;;;5025312;28;20419;-80
2024/01/11 02:30:24;;;;;;;65.38;32.05;;;;;;;;;;5009347;28;20909;-81
2024/01/11 02:32:51;;;;;;;67.35;32.38;;;;;;;;;;5014348;28;20412;-80
2024/01/11 02:35:17;;;;;;;69.07;33.95;;;;;;;;;;5060591;28;20407;-80
2024/01/11 02:37:44;;;;;;;66.57;33.13;;;;;;;;;;5031311;28;20422;-80
2024/01/11 02:40:10;;;;;;;69.28;33.65;;;;;;;;;;5030160;28;20423;-80
2024/01/11 02:42:36;;;;;;;63.67;31.92;;;;;;;;;;5015607;28;20449;-80
2024/01/11 02:45:06;;;;;;;65.50;32.07;;;;;;;;;;5031384;28;20414;-80
2024/01/11 02:47:32;;;;;;;67.95;33.13;;;;;;;;;;5026667;28;20909;-81
2024/01/11 02:49:58;;;;;;;67.60;32.63;;;;;;;;;;5014351;28;20404;-81
2024/01/11 02:52:24;;;;;;;69.82;33.45;;;;;;;;;;4997710;28;20415;-81
2024/01/11 02:54:50;;;;;;;70.30;34.35;;;;;;;;;;5013803;28;20426;-80
2024/01/11 02:57:16;;;;;;;68.10;33.13;;;;;;;;;;5011254;28;20416;-81
2024/01/11 02:59:43;;;;;;;71.00;33.95;;;;;;;;;;5014409;28;20827;-80
2024/01/11 03:02:10;;;;;;;71.15;34.40;;;;;;;;;;5014196;28;20438;-80
2024/01/11 03:04:36;;;;;;;72.13;35.13;;;;;;;;;;5014928;28;20442;-82
2024/01/11 03:07:02;;;;;;;69.50;33.50;;;;;;;;;;5014039;28;20403;-82
2024/01/11 03:09:28;;;;;;;65.95;32.35;;;;;;;;;;5030693;28;20748;-81
2024/01/11 03:11:54;;;;;;;68.72;32.63;;;;;;;;;;5028729;28;20455;-81
2024/01/11 03:14:23;;;;;;;67.40;32.35;;;;;;;;;;5014853;28;20442;-82
2024/01/11 03:16:49;;;;;;;65.25;33.08;;;;;;;;;;5010428;28;20409;-82
2024/01/11 03:19:15;;;;;;;63.63;32.85;;;;;;;;;;4998054;28;20432;-82
2024/01/11 03:21:42;;;;;;;67.22;32.30;;;;;;;;;;5014474;28;20410;-81
2024/01/11 03:24:08;;;;;;;63.10;32.50;;;;;;;;;;5027393;28;20424;-82
2024/01/11 03:26:35;;;;;;;62.45;32.10;;;;;;;;;;5012264;28;20431;-81
2024/01/11 03:29:01;;;;;;;63.28;31.95;;;;;;;;;;5013256;28;20414;-82
2024/01/11 03:31:27;;;;;;;65.32;31.33;;;;;;;;;;5029254;28;20873;-81
2024/01/11 03:33:53;;;;;;;63.35;31.73;;;;;;;;;;4997073;28;20411;-81
2024/01/11 03:36:24;;;;;;;58.72;30.83;;;;;;;;;;5012651;28;20403;-81
2024/01/11 03:38:50;;;;;;;59.83;30.73;;;;;;;;;;5013836;28;20406;-81
2024/01/11 03:41:16;;;;;;;59.20;29.47;;;;;;;;;;5011895;28;20395;-82
2024/01/11 03:43:42;;;;;;;60.20;30.77;;;;;;;;;;5028176;28;20789;-81
2024/01/11 03:46:08;;;;;;;60.45;30.67;;;;;;;;;;5006418;28;20399;-82
2024/01/11 03:48:35;;;;;;;61.38;30.80;;;;;;;;;;5020129;28;20770;-82
2024/01/11 03:51:01;;;;;;;60.17;30.45;;;;;;;;;;5045112;28;20564;-81
2024/01/11 03:53:28;;;;;;;63.08;30.80;;;;;;;;;;5025467;28;20820;-82
2024/01/11 03:55:54;;;;;;;57.67;29.30;;;;;;;;;;5025474;28;20433;-82
2024/01/11 03:58:20;;;;;;;55.65;29.23;;;;;;;;;;5012570;28;20477;-82
2024/01/11 04:00:47;;;;;;;55.47;29.60;;;;;;;;;;5011479;28;20427;-81
2024/01/11 04:03:15;;;;;;;55.20;29.90;;;;;;;;;;5028343;28;20402;-81
2024/01/11 04:05:41;;;;;;;59.30;30.25;;;;;;;;;;5012623;28;20407;-82
2024/01/11 04:08:10;;;;;;;58.40;29.95;;;;;;;;;;4997104;28;20425;-81
2024/01/11 04:10:36;;;;;;;58.17;29.63;;;;;;;;;;5028193;28;20406;-82
2024/01/11 04:13:02;;;;;;;61.22;30.15;;;;;;;;;;5013107;28;20458;-82
2024/01/11 04:15:28;;;;;;;58.85;30.80;;;;;;;;;;5029043;28;20418;-81
2024/01/11 04:17:54;;;;;;;59.35;30.73;;;;;;;;;;5031640;28;20649;-81
2024/01/11 04:20:20;;;;;;;57.25;30.17;;;;;;;;;;5029103;28;20439;-82
2024/01/11 04:22:46;;;;;;;60.28;30.80;;;;;;;;;;5013430;28;20987;-79
2024/01/11 04:25:12;;;;;;;63.25;32.08;;;;;;;;;;5016412;28;20402;-80
2024/01/11 04:27:38;;;;;;;58.33;30.35;;;;;;;;;;5029177;28;20407;-80
2024/01/11 04:30:04;;;;;;;57.55;30.83;;;;;;;;;;5018546;28;20469;-81
2024/01/11 04:32:30;;;;;;;62.50;30.00;;;;;;;;;;5015135;28;23415;-81
2024/01/11 04:34:57;;;;;;;58.00;30.27;;;;;;;;;;5016138;28;20410;-80
2024/01/11 04:37:23;;;;;;;58.40;29.42;;;;;;;;;;5016023;28;20884;-81
2024/01/11 04:39:49;;;;;;;58.17;29.97;;;;;;;;;;5016528;28;20428;-81
2024/01/11 04:42:15;;;;;;;58.22;29.15;;;;;;;;;;5014195;28;20950;-81
2024/01/11 04:44:41;;;;;;;61.53;31.07;;;;;;;;;;5016693;28;20480;-81
2024/01/11 04:47:08;;;;;;;61.53;32.25;;;;;;;;;;5016117;28;20396;-81
2024/01/11 04:49:34;;;;;;;61.25;31.83;;;;;;;;;;5015521;28;20523;-81
2024/01/11 04:52:00;;;;;;;65.35;31.63;;;;;;;;;;5031775;28;20405;-81
2024/01/11 04:54:27;;;;;;;65.20;32.05;;;;;;;;;;5015410;28;20907;-80
2024/01/11 04:56:53;;;;;;;62.50;31.83;;;;;;;;;;5012261;28;20506;-81
2024/01/11 04:59:19;;;;;;;62.22;31.20;;;;;;;;;;4985383;28;20451;-82
2024/01/11 05:01:48;;;;;;;58.83;30.88;;;;;;;;;;5001219;28;20421;-81
2024/01/11 05:04:14;;;;;;;62.33;32.10;;;;;;;;;;5019625;28;20413;-81
2024/01/11 05:06:43;;;;;;;62.13;31.30;;;;;;;;;;5031445;28;20751;-81
2024/01/11 05:09:09;;;;;;;61.22;30.77;;;;;;;;;;5035851;28;20507;-81
2024/01/11 05:11:35;;;;;;;65.20;32.25;;;;;;;;;;5033104;28;20482;-81
2024/01/11 05:14:01;;;;;;;65.30;31.45;;;;;;;;;;5019648;28;20405;-80
2024/01/11 05:16:28;;;;;;;65.38;32.90;;;;;;;;;;5019293;28;20896;-81
2024/01/11 05:18:55;;;;;;;62.28;33.10;;;;;;;;;;5032412;28;20403;-81
2024/01/11 05:21:21;;;;;;;64.82;32.15;;;;;;;;;;5033979;28;20963;-80
2024/01/11 05:23:48;;;;;;;65.40;32.33;;;;;;;;;;5017597;28;20421;-81
2024/01/11 05:26:15;;;;;;;64.60;32.95;;;;;;;;;;5019041;28;20480;-80
2024/01/11 05:28:41;;;;;;;60.92;31.20;;;;;;;;;;5018167;28;20428;-80
2024/01/11 05:31:11;;;;;;;65.40;32.53;;;;;;;;;;5031625;28;20914;-81
2024/01/11 05:33:37;;;;;;;61.78;32.13;;;;;;;;;;5033791;28;20404;-81
2024/01/11 05:36:04;;;;;;;63.65;32.78;;;;;;;;;;5003259;28;20452;-81
2024/01/11 05:38:30;;;;;;;63.75;32.65;;;;;;;;;;5022774;28;20414;-80
2024/01/11 05:40:56;;;;;;;69.55;34.20;;;;;;;;;;5018922;28;20424;-81
2024/01/11 05:43:23;;;;;;;66.93;33.90;;;;;;;;;;5034323;28;20434;-81
2024/01/11 05:45:49;;;;;;;60.67;32.15;;;;;;;;;;5019152;28;20742;-80
2024/01/11 05:48:16;;;;;;;66.53;33.60;;;;;;;;;;5032302;28;20405;-81
2024/01/11 05:50:42;;;;;;;65.20;33.92;;;;;;;;;;5020628;28;20407;-82
2024/01/11 05:53:08;;;;;;;63.47;32.70;;;;;;;;;;5005409;28;20478;-82
2024/01/11 05:55:35;;;;;;;58.83;31.73;;;;;;;;;;4991300;28;20541;-82
2024/01/11 05:58:01;;;;;;;63.60;33.65;;;;;;;;;;5025948;28;20425;-81
2024/01/11 06:00:30;;;;;;;81.43;43.07;;;;;;;;;;5033023;28;20789;-81
2024/01/11 06:02:56;;;;;;;68.47;34.75;;;;;;;;;;5029447;28;20963;-81
2024/01/11 06:05:22;;;;;;;61.00;32.30;;;;;;;;;;5027578;28;20406;-81
2024/01/11 06:07:48;;;;;;;65.78;33.38;;;;;;;;;;5035572;28;20951;-80
2024/01/11 06:10:15;;;;;;;64.22;33.83;;;;;;;;;;5015426;28;20405;-80
2024/01/11 06:12:41;;;;;;;64.85;34.15;;;;;;;;;;5018227;28;20399;-81
2024/01/11 06:15:07;;;;;;;67.63;33.40;;;;;;;;;;5024363;28;20465;-81
2024/01/11 06:17:34;;;;;;;69.60;35.75;;;;;;;;;;5016548;28;20425;-81
2024/01/11 06:20:00;;;;;;;64.70;33.20;;;;;;;;;;5019908;28;20907;-82
2024/01/11 06:22:29;;;;;;;62.67;32.08;;;;;;;;;;5010092;28;20401;-82
2024/01/11 06:24:55;;;;;;;65.53;34.33;;;;;;;;;;5017267;28;20425;-83
2024/01/11 06:27:21;;;;;;;64.68;33.20;;;;;;;;;;5033535;28;20496;-83
2024/01/11 06:29:50;;;;;;;62.45;32.50;;;;;;;;;;5017485;28;20972;-85
2024/01/11 06:32:16;;;;;;;64.07;33.53;;;;;;;;;;5017960;28;20428;-83
2024/01/11 06:34:45;;;;;;;64.78;33.53;;;;;;;;;;5026075;28;20411;-83
2024/01/11 06:37:12;;;;;;;63.22;33.63;;;;;;;;;;5030749;28;20445;-82
2024/01/11 06:39:38;;;;;;;63.55;32.40;;;;;;;;;;5031846;28;20421;-83
2024/01/11 06:42:04;;;;;;;65.93;32.70;;;;;;;;;;5033769;28;20402;-82
2024/01/11 06:44:31;;;;;;;66.28;33.13;;;;;;;;;;5026790;28;20415;-83
2024/01/11 06:47:06;;;;;;;62.47;32.92;;;;;;;;;;4994474;28;20899;-82
2024/01/11 06:49:41;;;;;;;65.35;33.30;;;;;;;;;;5018011;28;20413;-82
2024/01/11 06:52:35;;;;;;;62.08;32.38;;;;;;;;;;5031831;28;20464;-83
2024/01/11 06:55:47;;;;;;;;;;;;;;;;;;;;;
2024/01/11 06:58:32;;;;;;;62.07;32.80;;;;;;;;;;5030527;28;20481;-81
2024/01/11 07:01:04;;;;;;;67.50;34.08;;;;;;;;;;5009823;28;20460;-82
2024/01/11 07:04:27;;;;;;;68.43;34.58;;;;;;;;;;4998289;28;20754;-81
2024/01/11 07:07:32;;;;;;;65.68;33.67;;;;;;;;;;4997621;28;20861;-82
2024/01/11 07:09:58;;;;;;;65.97;34.15;;;;;;;;;;4957102;28;20530;-80
2024/01/11 07:12:52;;;;;;;;;;;;;;;;;;;;;
2024/01/11 07:18:42;;;;;;;65.87;33.37;;;;;;;;;;4982011;28;20444;-81
2024/01/11 07:24:26;;;;;;;61.63;32.30;;;;;;;;;;5005552;28;20932;-82
2024/01/11 07:27:10;;;;;;;;;;;;;;;;;;;;;
2024/01/11 07:29:47;;;;;;;64.37;33.40;;;;;;;;;;4977187;28;20466;-81
2024/01/11 07:32:29;;;;;;;65.47;32.27;;;;;;;;;;4974960;28;20441;-82
2024/01/11 07:35:04;;;;;;;63.47;32.33;;;;;;;;;;4964485;28;20434;-81
2024/01/11 07:38:24;;;;;;;63.88;32.25;;;;;;;;;;4991225;28;20436;-81
2024/01/11 07:41:03;;;;;;;62.90;32.72;;;;;;;;;;4942949;29;20842;-80
2024/01/11 07:44:35;;;;;;;65.47;33.63;;;;;;;;;;4985996;28;20418;-81
2024/01/11 07:47:11;;;;;;;69.82;35.10;;;;;;;;;;4928636;28;20433;-81
2024/01/11 07:50:14;;;;;;;67.55;34.00;;;;;;;;;;4976822;28;20398;-81
2024/01/11 07:52:51;;;;;;;67.25;34.58;;;;;;;;;;4980677;28;20483;-81
2024/01/11 07:55:17;;;;;;;68.03;35.08;;;;;;;;;;4990995;28;20405;-80
2024/01/11 07:57:43;;;;;;;68.57;35.17;;;;;;;;;;4991381;28;20408;-79
2024/01/11 08:00:09;;;;;;;65.68;34.10;;;;;;;;;;4975740;28;20992;-80
2024/01/11 08:02:35;;;;;;;66.10;33.83;;;;;;;;;;4992402;28;20405;-80
2024/01/11 08:05:02;;;;;;;67.80;34.83;;;;;;;;;;4995395;28;20429;-79
2024/01/11 08:07:28;;;;;;;68.23;35.33;;;;;;;;;;5008732;28;20540;-81
2024/01/11 08:09:54;;;;;;;69.35;35.85;;;;;;;;;;5018571;28;21030;-81
2024/01/11 08:12:20;;;;;;;66.32;34.10;;;;;;;;;;5012240;28;20850;-82
2024/01/11 08:14:48;;;;;;;67.35;35.22;;;;;;;;;;4993901;28;20425;-80
2024/01/11 08:17:26;;;;;;;67.18;33.35;;;;;;;;;;5051142;28;20893;-81
2024/01/11 08:19:56;;;;;;;64.28;33.70;;;;;;;;;;5018065;28;20483;-82
2024/01/11 08:22:38;;;;;;;70.47;36.08;;;;;;;;;;5028062;28;20424;-80
2024/01/11 08:25:05;;;;;;;67.60;34.85;;;;;;;;;;5041869;28;20783;-80
2024/01/11 08:27:38;;;;;;;66.82;34.38;;;;;;;;;;4997827;28;20478;-80
2024/01/11 08:30:12;;;;;;;66.30;35.15;;;;;;;;;;5012063;28;20922;-80
2024/01/11 08:32:44;;;;;;;67.00;33.83;;;;;;;;;;5005915;28;20411;-81
2024/01/11 08:35:21;;;;;;;63.35;33.03;;;;;;;;;;5012424;28;20446;-81
2024/01/11 08:38:05;;;;;;;62.67;33.00;;;;;;;;;;5031144;28;20927;-81
2024/01/11 08:40:53;;;;;;;60.53;31.02;;;;;;;;;;5003979;28;20425;-79
2024/01/11 08:43:56;;;;;;;59.92;32.28;;;;;;;;;;5015746;28;20422;-80
2024/01/11 08:46:30;;;;;;;56.28;30.08;;;;;;;;;;5028794;28;20387;-80
2024/01/11 08:48:57;;;;;;;58.20;30.63;;;;;;;;;;4998683;28;20415;-79
2024/01/11 08:51:24;;;;;;;57.30;30.77;;;;;;;;;;5013322;28;20399;-81
2024/01/11 08:54:13;;;;;;;57.97;31.15;;;;;;;;;;5027746;28;20406;-81
2024/01/11 08:56:43;;;;;;;59.30;30.92;;;;;;;;;;5001559;28;20409;-80
2024/01/11 08:59:29;;;;;;;59.23;31.43;;;;;;;;;;5013231;28;20503;-79
2024/01/11 09:02:06;;;;;;;66.68;34.80;;;;;;;;;;5021344;28;20517;-79
2024/01/11 09:04:54;;;;;;;60.42;32.05;;;;;;;;;;5031966;28;20395;-81
2024/01/11 09:07:32;;;;;;;62.55;32.80;;;;;;;;;;5032253;28;20394;-80
2024/01/11 09:10:13;;;;;;;62.40;33.42;;;;;;;;;;5027269;28;20402;-81
2024/01/11 09:12:44;;;;;;;62.33;33.67;;;;;;;;;;4987139;28;20527;-80
2024/01/11 09:15:18;;;;;;;60.53;30.65;;;;;;;;;;5029857;28;20422;-80
2024/01/11 09:18:04;;;;;;;59.22;30.67;;;;;;;;;;5015491;28;20969;-80
2024/01/11 09:20:33;;;;;;;59.35;30.45;;;;;;;;;;5013113;28;20426;-79
2024/01/11 09:23:12;;;;;;;62.07;33.73;;;;;;;;;;5004565;28;20444;-79
2024/01/11 09:25:45;;;;;;;58.05;31.52;;;;;;;;;;4994500;28;20418;-80
2024/01/11 09:28:13;;;;;;;56.13;30.27;;;;;;;;;;4995621;28;20558;-79
2024/01/11 09:30:45;;;;;;;54.53;30.10;;;;;;;;;;4997469;28;20915;-80
2024/01/11 09:33:13;;;;;;;55.55;29.77;;;;;;;;;;4982856;28;20936;-79
2024/01/11 09:35:39;;;;;;;57.25;30.88;;;;;;;;;;4979518;28;20418;-80
2024/01/11 09:38:12;;;;;;;54.80;30.75;;;;;;;;;;4995836;28;20468;-80
2024/01/11 09:40:57;;;;;;;59.13;31.55;;;;;;;;;;5007375;28;20427;-81
2024/01/11 09:43:29;;;;;;;58.88;31.25;;;;;;;;;;5012021;28;20415;-79
2024/01/11 09:45:56;;;;;;;56.50;30.43;;;;;;;;;;4990225;28;20938;-81
2024/01/11 09:48:28;;;;;;;55.83;29.38;;;;;;;;;;4998442;28;20462;-80
2024/01/11 09:51:04;;;;;;;57.33;30.50;;;;;;;;;;4992924;28;20423;-82
2024/01/11 09:53:36;;;;;;;58.38;31.35;;;;;;;;;;4991920;28;20773;-80
2024/01/11 09:56:04;;;;;;;55.83;30.20;;;;;;;;;;5012918;28;21060;-80
2024/01/11 09:58:36;;;;;;;57.70;30.87;;;;;;;;;;5002282;28;20469;-82
2024/01/11 10:01:16;;;;;;;55.28;29.75;;;;;;;;;;4998871;28;20511;-84
2024/01/11 10:03:47;;;;;;;52.43;29.23;;;;;;;;;;5017994;28;20405;-81
2024/01/11 10:06:15;;;;;;;54.88;30.55;;;;;;;;;;5010688;28;20399;-81
2024/01/11 10:08:44;;;;;;;57.03;30.80;;;;;;;;;;5010649;28;20485;-81
2024/01/11 10:11:10;;;;;;;57.05;31.25;;;;;;;;;;4998494;28;20498;-81
2024/01/11 10:13:39;;;;;;;52.53;29.27;;;;;;;;;;5013058;28;20501;-83
2024/01/11 10:16:15;;;;;;;52.95;29.65;;;;;;;;;;5012438;28;20427;-82
2024/01/11 10:18:54;;;;;;;56.50;31.85;;;;;;;;;;5029720;28;20426;-83
2024/01/11 10:21:22;;;;;;;54.75;29.60;;;;;;;;;;4998141;28;20433;-83
2024/01/11 10:23:52;;;;;;;51.20;28.85;;;;;;;;;;5008224;28;20419;-83
2024/01/11 10:26:18;;;;;;;50.40;28.90;;;;;;;;;;5013315;28;20481;-83
2024/01/11 10:28:48;;;;;;;49.65;29.33;;;;;;;;;;5010357;28;20430;-83
2024/01/11 10:31:18;;;;;;;51.55;28.90;;;;;;;;;;5025486;28;20433;-83
2024/01/11 10:33:45;;;;;;;51.38;29.02;;;;;;;;;;5015146;28;20422;-84
2024/01/11 10:36:12;;;;;;;51.90;30.08;;;;;;;;;;5010761;28;20416;-83
2024/01/11 10:38:39;;;;;;;52.03;30.23;;;;;;;;;;5014806;28;20407;-83
2024/01/11 10:41:06;;;;;;;52.28;29.70;;;;;;;;;;5027913;28;20524;-82
2024/01/11 10:43:35;;;;;;;53.10;30.73;;;;;;;;;;5012615;28;20487;-83
2024/01/11 10:46:08;;;;;;;56.67;32.27;;;;;;;;;;5015003;28;20474;-85
2024/01/11 10:48:47;;;;;;;52.50;30.95;;;;;;;;;;5011653;28;20419;-84
2024/01/11 10:51:18;;;;;;;53.28;30.35;;;;;;;;;;5007458;28;20429;-84
2024/01/11 10:53:45;;;;;;;53.83;30.77;;;;;;;;;;5006850;28;20422;-85
2024/01/11 10:56:12;;;;;;;50.50;29.08;;;;;;;;;;5026630;28;20413;-84
2024/01/11 10:58:42;;;;;;;49.85;28.65;;;;;;;;;;5021338;28;20500;-84
2024/01/11 11:01:12;;;;;;;46.70;28.15;;;;;;;;;;5014295;28;20433;-84
2024/01/11 11:03:45;;;;;;;45.53;26.45;;;;;;;;;;5014316;28;20545;-85
2024/01/11 11:06:28;;;;;;;49.75;28.35;;;;;;;;;;5014496;28;20401;-84
2024/01/11 11:09:14;;;;;;;47.95;27.27;;;;;;;;;;5007887;28;20478;-83
2024/01/11 11:11:58;;;;;;;47.28;27.65;;;;;;;;;;5024824;28;20431;-85
2024/01/11 11:14:35;;;;;;;46.70;26.73;;;;;;;;;;4995443;28;20488;-84
2024/01/11 11:17:06;;;;;;;46.83;28.83;;;;;;;;;;5029101;28;20883;-84
2024/01/11 11:19:33;;;;;;;47.67;27.80;;;;;;;;;;5004062;28;20502;-85
2024/01/11 11:22:01;;;;;;;51.50;28.92;;;;;;;;;;5013597;28;20422;-84
2024/01/11 11:24:39;;;;;;;48.30;28.35;;;;;;;;;;5005450;28;20504;-84
2024/01/11 11:27:07;;;;;;;48.65;28.55;;;;;;;;;;5012787;28;20427;-83
2024/01/11 11:29:35;;;;;;;52.13;30.05;;;;;;;;;;5013659;28;20415;-82
2024/01/11 11:32:04;;;;;;;55.33;30.50;;;;;;;;;;5012721;28;20427;-82
2024/01/11 11:34:52;;;;;;;52.45;29.65;;;;;;;;;;5007466;28;20430;-83
2024/01/11 11:37:37;;;;;;;49.05;28.52;;;;;;;;;;5028174;28;20806;-82
2024/01/11 11:40:12;;;;;;;47.47;28.67;;;;;;;;;;5006782;28;20451;-81
2024/01/11 11:42:40;;;;;;;46.85;27.83;;;;;;;;;;4990998;28;20507;-82
2024/01/11 11:45:15;;;;;;;46.83;27.08;;;;;;;;;;5009438;28;20431;-82
2024/01/11 11:47:47;;;;;;;49.15;27.75;;;;;;;;;;5000288;28;20439;-81
2024/01/11 11:50:31;;;;;;;48.42;27.52;;;;;;;;;;5008050;28;20417;-81
2024/01/11 11:53:15;;;;;;;51.50;28.90;;;;;;;;;;4988323;28;20466;-81
2024/01/11 11:55:51;;;;;;;45.30;25.67;;;;;;;;;;4988216;28;20489;-81
2024/01/11 12:02:10;;;;;;;48.33;27.73;;;;;;;;;;4916030;28;20867;-79
2024/01/11 12:11:27;;;;;;;48.97;27.05;;;;;;;;;;4975404;28;20478;-81
2024/01/11 12:14:02;;;;;;;48.33;27.00;;;;;;;;;;4975181;28;20437;-80
2024/01/11 12:16:28;;;;;;;52.10;28.30;;;;;;;;;;4990034;28;20438;-79
2024/01/11 12:18:54;;;;;;;52.58;27.55;;;;;;;;;;4962368;28;20467;-80
2024/01/11 12:21:21;;;;;;;52.63;28.00;;;;;;;;;;4962462;28;20443;-80
2024/01/11 12:23:48;;;;;;;54.72;28.10;;;;;;;;;;4975904;28;20407;-80
2024/01/11 12:26:15;;;;;;;52.73;27.93;;;;;;;;;;5001769;28;20474;-79
2024/01/11 12:28:41;;;;;;;51.93;27.63;;;;;;;;;;5034589;28;20491;-79
2024/01/11 12:31:07;;;;;;;55.30;27.77;;;;;;;;;;5021223;28;20430;-78
2024/01/11 12:33:35;;;;;;;51.80;28.00;;;;;;;;;;5053500;28;20492;-78
2024/01/11 12:36:01;;;;;;;50.27;27.67;;;;;;;;;;5051714;28;20421;-75
2024/01/11 12:38:27;;;;;;;54.40;28.23;;;;;;;;;;5042509;28;20401;-78
2024/01/11 12:40:53;;;;;;;51.40;28.33;;;;;;;;;;5035211;28;20429;-79
2024/01/11 12:43:21;;;;;;;54.03;28.83;;;;;;;;;;5018137;28;20462;-78
2024/01/11 12:45:47;;;;;;;51.58;28.33;;;;;;;;;;5018832;28;20420;-77
2024/01/11 12:48:15;;;;;;;51.33;27.85;;;;;;;;;;5034187;28;20400;-78
2024/01/11 12:50:42;;;;;;;49.67;26.20;;;;;;;;;;5033146;28;20517;-78
2024/01/11 12:53:12;;;;;;;54.23;28.17;;;;;;;;;;5033089;28;20445;-78
2024/01/11 12:55:38;;;;;;;53.35;29.25;;;;;;;;;;5034845;28;20462;-78
2024/01/11 12:58:09;;;;;;;49.22;27.98;;;;;;;;;;4994816;28;20444;-78
2024/01/11 13:00:36;;;;;;;53.58;27.70;;;;;;;;;;5018648;28;20460;-78
2024/01/11 13:03:03;;;;;;;53.10;28.35;;;;;;;;;;5028370;28;20455;-78
2024/01/11 13:05:34;;;;;;;54.08;27.45;;;;;;;;;;5034191;28;20401;-77
2024/01/11 13:08:01;;;;;;;49.95;27.02;;;;;;;;;;5035303;28;20500;-78
2024/01/11 13:10:27;;;;;;;50.80;27.58;;;;;;;;;;5017924;28;20496;-78
2024/01/11 13:12:55;;;;;;;52.42;27.27;;;;;;;;;;5040392;28;20406;-78
2024/01/11 13:15:21;;;;;;;55.88;27.20;;;;;;;;;;5034777;28;20890;-79
2024/01/11 13:17:48;;;;;;;52.42;27.65;;;;;;;;;;5029992;28;20401;-79
2024/01/11 13:20:15;;;;;;;50.78;26.92;;;;;;;;;;5027811;28;20423;-79
2024/01/11 13:22:41;;;;;;;54.23;27.80;;;;;;;;;;5036199;28;20519;-79
2024/01/11 13:25:07;;;;;;;53.60;27.88;;;;;;;;;;5025335;28;20969;-80
2024/01/11 13:27:33;;;;;;;52.92;27.05;;;;;;;;;;5037511;28;20406;-80
2024/01/11 13:29:59;;;;;;;58.00;28.17;;;;;;;;;;5009750;28;20401;-80
2024/01/11 13:32:27;;;;;;;55.03;28.10;;;;;;;;;;5038119;28;20568;-79
2024/01/11 13:34:53;;;;;;;59.78;29.05;;;;;;;;;;5037820;28;20397;-79
2024/01/11 13:37:20;;;;;;;56.88;28.75;;;;;;;;;;5036699;28;20479;-80
2024/01/11 13:39:48;;;;;;;61.28;29.08;;;;;;;;;;5035962;28;20430;-79
2024/01/11 13:42:14;;;;;;;56.50;28.27;;;;;;;;;;5035763;28;20411;-80
2024/01/11 13:44:42;;;;;;;62.13;29.73;;;;;;;;;;5036029;28;20454;-80
2024/01/11 13:47:08;;;;;;;61.10;30.00;;;;;;;;;;5031887;28;20425;-80
2024/01/11 13:49:34;;;;;;;56.20;28.35;;;;;;;;;;5035735;28;20427;-80
2024/01/11 13:52:00;;;;;;;59.25;30.25;;;;;;;;;;5025394;28;20415;-80
2024/01/11 13:54:27;;;;;;;65.00;31.98;;;;;;;;;;5019943;28;20516;-80
2024/01/11 13:56:53;;;;;;;65.43;30.98;;;;;;;;;;5018454;28;20432;-80
2024/01/11 13:59:19;;;;;;;63.58;31.63;;;;;;;;;;5019042;28;20777;-80
2024/01/11 14:01:46;;;;;;;68.53;31.63;;;;;;;;;;5030512;28;20422;-80
2024/01/11 14:04:12;;;;;;;64.93;30.48;;;;;;;;;;5026803;28;20429;-79
2024/01/11 14:06:38;;;;;;;65.55;31.10;;;;;;;;;;5014871;28;20420;-80
2024/01/11 14:09:07;;;;;;;62.85;30.92;;;;;;;;;;5017338;28;20900;-80
2024/01/11 14:11:33;;;;;;;69.75;32.20;;;;;;;;;;4991006;28;20810;-80
2024/01/11 14:13:59;;;;;;;70.97;32.05;;;;;;;;;;5014134;28;20409;-80
2024/01/11 14:16:25;;;;;;;64.07;30.70;;;;;;;;;;5016708;28;20575;-80
2024/01/11 14:18:51;;;;;;;60.65;29.10;;;;;;;;;;5013912;28;20421;-80
2024/01/11 14:21:17;;;;;;;66.90;30.25;;;;;;;;;;5016160;28;20455;-80
2024/01/11 14:23:43;;;;;;;64.97;30.75;;;;;;;;;;5002901;28;20413;-81
2024/01/11 14:26:09;;;;;;;63.75;29.50;;;;;;;;;;5012959;28;21004;-80
2024/01/11 14:28:42;;;;;;;59.28;29.27;;;;;;;;;;5016631;28;20419;-81
2024/01/11 14:31:08;;;;;;;64.75;30.23;;;;;;;;;;4983329;28;20878;-80
2024/01/11 14:33:36;;;;;;;91.30;34.40;;;;;;;;;;5033686;28;20409;-80
2024/01/11 14:36:02;;;;;;;57.57;29.23;;;;;;;;;;5016856;28;20992;-80
2024/01/11 14:38:28;;;;;;;61.08;28.95;;;;;;;;;;5032605;28;20417;-80
2024/01/11 14:40:54;;;;;;;58.10;28.52;;;;;;;;;;5019327;28;20426;-81
2024/01/11 14:43:21;;;;;;;61.92;32.00;;;;;;;;;;5015504;28;21019;-80
2024/01/11 14:45:47;;;;;;;60.33;29.85;;;;;;;;;;5033022;28;20495;-80
2024/01/11 14:48:13;;;;;;;64.22;30.55;;;;;;;;;;5014760;28;20424;-80
2024/01/11 14:50:39;;;;;;;63.85;29.52;;;;;;;;;;5018093;28;20409;-80
2024/01/11 14:53:05;;;;;;;85.50;32.73;;;;;;;;;;5026361;28;20537;-81